Time;durP1;ratioP1;P1;durP2;ratioP2;P2;SDS_P1;SDS_P2;PMS_P1;PMS_P2;Temp;Humidity;BMP_temperature;BMP_pressure;BME280_temperature;BME280_humidity;BME280_pressure;Samples;Min_cycle;Max_cycle;Signal;HPM_P1;HPM_P2
2022/11/24 00:01:55;;;;;;;16.40;6.93;;;;;;;8.31;68.19;97525.84;4488374;32;20080;-88
2022/11/24 00:04:20;;;;;;;20.55;8.63;;;;;;;8.32;68.10;97528.34;4488281;32;20107;-87
2022/11/24 00:06:46;;;;;;;19.08;7.72;;;;;;;7.82;70.21;97528.06;4473753;32;20461;-89
2022/11/24 00:09:11;;;;;;;19.17;8.50;;;;;;;8.07;69.11;97523.84;4488282;32;20111;-88
2022/11/24 00:11:37;;;;;;;17.75;7.72;;;;;;;8.17;69.10;97531.94;4488357;32;20085;-88
2022/11/24 00:14:03;;;;;;;23.70;9.43;;;;;;;7.96;69.73;97527.19;4488269;32;20080;-88
2022/11/24 00:16:34;;;;;;;23.77;10.15;;;;;;;7.82;70.71;97525.44;4473745;32;20499;-89
2022/11/24 00:19:01;;;;;;;23.05;9.80;;;;;;;7.90;69.98;97529.34;4488031;32;20730;-88
2022/11/24 00:21:28;;;;;;;25.50;11.57;;;;;;;7.82;70.68;97533.31;4473628;32;20483;-87
2022/11/24 00:23:54;;;;;;;29.58;12.32;;;;;;;7.84;70.13;97531.41;4487857;32;20080;-88
2022/11/24 00:26:25;;;;;;;28.70;12.37;;;;;;;7.60;71.37;97541.66;4487898;32;20132;-88
2022/11/24 00:28:52;;;;;;;28.30;11.48;;;;;;;7.34;71.95;97551.16;4487830;32;20153;-86
2022/11/24 00:31:20;;;;;;;25.55;11.65;;;;;;;7.72;71.00;97544.44;4473618;32;20440;-85
2022/11/24 00:33:47;;;;;;;27.35;11.60;;;;;;;7.25;72.89;97547.31;4487757;32;20080;-85
2022/11/24 00:36:12;;;;;;;30.20;11.48;;;;;;;7.23;73.56;97551.78;4473877;32;20156;-85
2022/11/24 00:38:37;;;;;;;30.80;11.90;;;;;;;7.48;72.04;97543.28;4487800;32;20107;-85
2022/11/24 00:41:03;;;;;;;29.73;12.00;;;;;;;7.16;73.82;97560.94;4487790;32;20149;-85
2022/11/24 00:43:28;;;;;;;28.73;12.25;;;;;;;7.15;73.80;97558.44;4487802;32;20080;-85
2022/11/24 00:45:54;;;;;;;29.40;11.02;;;;;;;7.51;72.61;97563.19;4473490;32;20156;-85
2022/11/24 00:48:19;;;;;;;25.73;11.35;;;;;;;7.54;72.37;97565.62;4487738;32;20126;-85
2022/11/24 00:50:57;;;;;;;28.20;11.65;;;;;;;7.77;71.36;97566.81;4487871;32;20092;-85
2022/11/24 00:53:23;;;;;;;25.95;10.50;;;;;;;7.24;73.66;97574.44;4487706;32;20076;-85
2022/11/24 00:55:50;;;;;;;27.20;11.43;;;;;;;7.42;72.40;97569.03;4487617;32;20145;-85
2022/11/24 00:58:15;;;;;;;27.13;10.82;;;;;;;7.46;72.52;97570.50;4473058;32;20096;-86
2022/11/24 01:00:40;;;;;;;25.15;10.52;;;;;;;7.40;73.18;97574.34;4487588;32;20164;-86
2022/11/24 01:03:06;;;;;;;26.90;11.40;;;;;;;7.63;72.13;97575.56;4487730;32;20126;-86
2022/11/24 01:05:35;;;;;;;25.40;10.55;;;;;;;7.42;72.38;97582.97;4487617;32;20345;-85
2022/11/24 01:08:00;;;;;;;22.67;9.27;;;;;;;7.73;71.67;97573.19;4487566;32;20115;-85
2022/11/24 01:10:26;;;;;;;26.27;9.82;;;;;;;7.58;72.09;97577.59;4487779;32;20088;-89
2022/11/24 01:12:51;;;;;;;24.95;9.43;;;;;;;7.03;74.37;97583.56;4487497;32;20076;-89
2022/11/24 01:15:17;;;;;;;24.58;9.90;;;;;;;7.09;74.89;97584.06;4487594;32;20105;-88
2022/11/24 01:17:42;;;;;;;22.23;9.45;;;;;;;7.27;73.70;97582.09;4487534;32;20080;-87
2022/11/24 01:20:08;;;;;;;22.40;8.77;;;;;;;7.65;72.05;97578.09;4473123;32;20431;-85
2022/11/24 01:22:34;;;;;;;19.50;7.82;;;;;;;7.44;72.82;97580.25;4487431;32;20076;-85
2022/11/24 01:24:59;;;;;;;22.35;8.35;;;;;;;7.27;73.70;97583.88;4473208;32;20444;-85
2022/11/24 01:27:24;;;;;;;21.12;8.63;;;;;;;7.40;72.91;97576.97;4487480;32;20084;-85
2022/11/24 01:29:50;;;;;;;21.85;8.10;;;;;;;7.41;72.48;97580.41;4473127;32;20107;-86
2022/11/24 01:32:15;;;;;;;23.38;9.13;;;;;;;7.64;71.80;97579.84;4487332;32;20131;-86
2022/11/24 01:34:40;;;;;;;20.00;8.48;;;;;;;6.96;74.54;97577.87;4487420;32;20107;-86
2022/11/24 01:37:06;;;;;;;22.80;8.25;;;;;;;7.14;74.21;97578.53;4487362;32;20100;-86
2022/11/24 01:39:31;;;;;;;23.05;8.63;;;;;;;6.86;75.15;97587.19;4473107;32;20548;-86
2022/11/24 01:42:00;;;;;;;20.80;8.48;;;;;;;7.08;74.71;97581.53;4487390;32;20352;-86
2022/11/24 01:44:28;;;;;;;20.77;8.57;;;;;;;7.36;73.30;97590.31;4473181;32;20101;-85
2022/11/24 01:46:59;;;;;;;20.27;8.48;;;;;;;7.25;73.92;97588.38;4487264;32;20092;-88
2022/11/24 01:49:39;;;;;;;21.67;8.75;;;;;;;7.39;73.17;97596.22;4473039;32;20092;-85
2022/11/24 01:52:12;;;;;;;21.40;8.57;;;;;;;7.57;72.45;97585.56;4487334;32;20080;-87
2022/11/24 01:54:41;;;;;;;21.20;8.48;;;;;;;7.64;72.02;97587.69;4487328;32;20080;-89
2022/11/24 01:57:33;;;;;;;21.58;8.70;;;;;;;7.24;73.96;97591.91;4478288;31;20159;-87
2022/11/24 02:00:01;;;;;;;20.25;8.52;;;;;;;7.14;74.60;97593.41;4503204;31;20106;-87
2022/11/24 02:02:27;;;;;;;22.15;8.75;;;;;;;7.05;75.05;97590.41;4487350;31;20443;-87
2022/11/24 02:04:53;;;;;;;20.50;8.63;;;;;;;7.58;72.64;97585.47;4488699;31;20137;-88
2022/11/24 02:07:19;;;;;;;20.42;8.95;;;;;;;7.53;73.14;97586.69;4503047;31;20139;-88
2022/11/24 02:09:48;;;;;;;20.80;8.80;;;;;;;7.38;72.87;97585.84;4501930;31;20104;-87
2022/11/24 02:12:13;;;;;;;26.20;10.95;;;;;;;6.85;74.87;97588.97;4502965;31;20142;-88
2022/11/24 02:14:41;;;;;;;24.83;9.43;;;;;;;7.13;74.45;97589.97;4502993;31;20159;-88
2022/11/24 02:17:07;;;;;;;23.20;10.15;;;;;;;7.39;73.25;97591.00;4494451;31;20105;-87
2022/11/24 02:19:38;;;;;;;23.10;9.68;;;;;;;7.25;74.39;97588.38;4490515;31;20084;-88
2022/11/24 02:22:10;;;;;;;22.92;9.52;;;;;;;7.77;71.86;97587.78;4486928;31;20462;-88
2022/11/24 02:24:42;;;;;;;23.30;9.52;;;;;;;7.69;72.05;97590.06;4488625;31;20422;-89
2022/11/24 02:27:09;;;;;;;29.05;10.93;;;;;;;7.10;75.28;97592.75;4488490;31;20183;-88
2022/11/24 02:29:34;;;;;;;26.48;10.98;;;;;;;7.16;74.56;97592.37;4488521;31;20118;-87
2022/11/24 02:32:02;;;;;;;30.52;12.13;;;;;;;6.99;75.14;97600.41;4488307;31;20411;-88
2022/11/24 02:34:27;;;;;;;;;;;;;;;7.05;74.72;97603.50;4503039;31;20466;-86
2022/11/24 02:36:53;;;;;;;30.25;13.73;;;;;;;6.75;76.30;97611.38;4488546;31;19998;-86
2022/11/24 02:39:18;;;;;;;40.20;15.82;;;;;;;6.52;76.83;97602.22;4502703;31;20080;-86
2022/11/24 02:41:49;;;;;;;36.33;15.07;;;;;;;6.31;77.34;97604.28;4475246;31;20099;-87
2022/11/24 02:44:15;;;;;;;37.60;15.32;;;;;;;6.54;77.31;97604.75;4488513;31;20448;-87
2022/11/24 02:46:40;;;;;;;34.70;14.45;;;;;;;6.86;76.23;97598.50;4488412;31;20978;-88
2022/11/24 02:49:06;;;;;;;42.90;18.85;;;;;;;6.58;76.64;97601.03;4502704;31;20076;-88
2022/11/24 02:51:33;;;;;;;50.72;20.33;;;;;;;6.37;77.49;97595.25;4487999;31;20106;-87
2022/11/24 02:53:58;;;;;;;47.10;19.70;;;;;;;6.57;76.39;97602.81;4502666;31;20149;-86
2022/11/24 02:56:24;;;;;;;53.05;20.83;;;;;;;6.45;76.62;97593.91;4488284;31;20093;-87
2022/11/24 02:58:50;;;;;;;53.78;22.23;;;;;;;6.30;76.47;97597.38;4502444;31;20244;-87
2022/11/24 03:01:15;;;;;;;54.45;22.48;;;;;;;6.04;77.82;97604.88;4502640;31;20499;-85
2022/11/24 03:03:41;;;;;;;52.10;23.17;;;;;;;6.31;76.84;97596.44;4502484;31;20095;-85
2022/11/24 03:06:06;;;;;;;59.42;24.25;;;;;;;5.97;77.42;97597.47;4502598;31;20091;-84
2022/11/24 03:08:32;;;;;;;56.80;24.25;;;;;;;5.57;80.54;97608.28;4502437;31;20494;-85
2022/11/24 03:10:57;;;;;;;50.08;22.87;;;;;;;5.67;80.10;97601.63;4502399;31;20140;-88
2022/11/24 03:13:22;;;;;;;49.92;21.45;;;;;;;5.91;78.70;97601.25;4502308;31;20106;-86
2022/11/24 03:15:48;;;;;;;58.25;22.60;;;;;;;6.42;76.70;97595.84;4502353;31;20140;-85
2022/11/24 03:18:13;;;;;;;56.53;22.90;;;;;;;6.19;77.33;97602.38;4487977;31;20080;-86
2022/11/24 03:20:39;;;;;;;55.00;21.90;;;;;;;6.23;76.78;97601.25;4501936;31;20084;-86
2022/11/24 03:23:04;;;;;;;58.78;22.92;;;;;;;6.34;76.16;97611.12;4502080;31;20099;-86
2022/11/24 03:25:29;;;;;;;53.70;23.50;;;;;;;6.16;77.17;97616.47;4502222;31;20110;-86
2022/11/24 03:27:56;;;;;;;56.92;22.70;;;;;;;6.27;76.26;97608.84;4502071;31;20080;-87
2022/11/24 03:30:22;;;;;;;53.30;23.92;;;;;;;5.97;77.28;97613.16;4487705;31;20076;-85
2022/11/24 03:32:50;;;;;;;50.78;21.08;;;;;;;5.89;77.55;97611.78;4502062;31;20379;-87
2022/11/24 03:35:16;;;;;;;51.28;21.52;;;;;;;5.83;77.87;97627.81;4487850;31;20100;-87
2022/11/24 03:37:42;;;;;;;48.80;22.02;;;;;;;6.07;76.69;97624.81;4502154;31;20466;-87
2022/11/24 03:40:08;;;;;;;48.33;21.80;;;;;;;6.36;75.09;97617.13;4487942;31;20106;-87
2022/11/24 03:42:33;;;;;;;48.08;20.65;;;;;;;5.87;76.40;97618.88;4502005;31;20096;-88
2022/11/24 03:44:58;;;;;;;52.50;22.40;;;;;;;6.09;75.33;97620.34;4501940;31;20352;-87
2022/11/24 03:47:24;;;;;;;48.00;21.67;;;;;;;5.57;77.37;97623.13;4501789;31;20111;-85
2022/11/24 03:49:49;;;;;;;52.75;22.80;;;;;;;5.87;75.91;97620.63;4501876;31;20080;-86
2022/11/24 03:52:15;;;;;;;54.03;23.80;;;;;;;5.31;77.34;97626.19;4501874;31;20092;-86
2022/11/24 03:54:41;;;;;;;55.25;22.10;;;;;;;5.49;77.25;97626.16;4501439;31;20447;-87
2022/11/24 03:57:06;;;;;;;53.03;21.83;;;;;;;5.66;76.41;97622.63;4501967;31;20107;-87
2022/11/24 03:59:32;;;;;;;51.40;21.87;;;;;;;5.73;75.88;97626.59;4487357;31;20616;-85
2022/11/24 04:01:57;;;;;;;52.38;23.40;;;;;;;5.40;76.66;97626.62;4501634;31;20390;-87
2022/11/24 04:04:23;;;;;;;52.25;23.25;;;;;;;4.97;77.70;97621.00;4501738;31;20084;-86
2022/11/24 04:06:48;;;;;;;50.95;22.73;;;;;;;5.23;76.73;97623.09;4487377;31;20096;-86
2022/11/24 04:09:13;;;;;;;52.65;22.85;;;;;;;5.36;76.54;97625.09;4501437;31;20225;-85
2022/11/24 04:14:23;;;;;;;52.70;22.50;;;;;;;5.33;76.75;97628.69;4501577;31;20163;-85
2022/11/24 04:16:49;;;;;;;53.05;23.30;;;;;;;5.49;76.81;97631.37;4501537;31;20103;-85
2022/11/24 04:19:14;;;;;;;53.78;22.67;;;;;;;5.68;75.47;97628.63;4501406;31;20466;-86
2022/11/24 04:21:39;;;;;;;47.33;21.12;;;;;;;5.41;75.56;97633.50;4501368;31;20140;-86
2022/11/24 04:24:05;;;;;;;53.33;23.20;;;;;;;5.70;74.67;97638.06;4501440;31;20092;-86
2022/11/24 04:26:30;;;;;;;51.70;22.92;;;;;;;6.04;73.13;97643.28;4487086;31;20111;-86
2022/11/24 04:28:56;;;;;;;58.85;24.02;;;;;;;5.60;75.00;97649.06;4501276;31;20092;-85
2022/11/24 04:31:21;;;;;;;55.10;23.95;;;;;;;5.28;76.16;97652.44;4486872;31;20384;-86
2022/11/24 04:33:47;;;;;;;57.90;22.90;;;;;;;5.66;74.73;97652.22;4499408;31;20369;-86
2022/11/24 04:36:12;;;;;;;52.35;22.13;;;;;;;5.47;75.58;97654.94;4485553;31;20150;-87
2022/11/24 04:38:37;;;;;;;60.65;24.42;;;;;;;5.50;75.20;97651.31;4493982;31;20459;-84
2022/11/24 04:41:04;;;;;;;63.33;25.40;;;;;;;5.25;76.30;97664.81;4488725;31;20114;-85
2022/11/24 04:43:30;;;;;;;64.03;23.58;;;;;;;5.14;76.31;97670.59;4471851;32;20755;-86
2022/11/24 04:45:58;;;;;;;56.92;23.70;;;;;;;5.27;75.12;97676.87;4489772;31;20096;-86
2022/11/24 04:48:24;;;;;;;54.33;22.80;;;;;;;5.76;73.22;97665.66;4492607;31;20144;-85
2022/11/24 04:50:49;;;;;;;58.72;23.55;;;;;;;5.49;73.35;97683.63;4495250;31;20099;-85
2022/11/24 04:53:15;;;;;;;56.95;23.87;;;;;;;5.47;73.62;97681.06;4487443;31;20080;-86
2022/11/24 04:55:40;;;;;;;56.92;23.15;;;;;;;4.91;74.65;97680.41;4498183;31;20114;-87
2022/11/24 04:58:07;;;;;;;59.63;24.33;;;;;;;5.30;73.70;97692.37;4490527;31;20480;-86
2022/11/24 05:00:33;;;;;;;61.25;25.15;;;;;;;5.24;73.91;97687.47;4477568;32;20131;-84
2022/11/24 05:02:58;;;;;;;63.20;26.23;;;;;;;5.15;73.72;97687.09;4496684;31;20368;-86
2022/11/24 05:05:24;;;;;;;63.70;25.52;;;;;;;4.93;74.65;97699.44;4486879;31;20116;-84
2022/11/24 05:07:49;;;;;;;67.40;25.37;;;;;;;5.28;73.83;97704.66;4501890;31;20386;-86
2022/11/24 05:12:59;;;;;;;67.75;25.77;;;;;;;5.36;72.80;97687.78;4491466;31;20126;-84
2022/11/24 05:15:25;;;;;;;62.62;25.35;;;;;;;5.16;73.69;97704.44;4503367;31;20443;-86
2022/11/24 05:17:50;;;;;;;64.97;25.20;;;;;;;5.39;73.40;97706.75;4501956;31;20157;-87
2022/11/24 05:20:17;;;;;;;59.80;24.98;;;;;;;5.19;73.58;97714.72;4503252;31;20095;-86
2022/11/24 05:22:42;;;;;;;61.17;22.77;;;;;;;5.17;73.55;97713.97;4485860;31;20164;-88
2022/11/24 05:25:08;;;;;;;59.08;23.05;;;;;;;5.49;73.11;97707.13;4503254;31;20087;-88
2022/11/24 05:27:33;;;;;;;55.83;22.85;;;;;;;5.10;73.40;97711.66;4488761;31;20089;-87
2022/11/24 05:29:59;;;;;;;53.78;21.83;;;;;;;5.24;73.74;97720.56;4503408;31;20092;-86
2022/11/24 05:32:24;;;;;;;53.40;21.25;;;;;;;5.35;73.47;97712.19;4500160;31;80205;-86
2022/11/24 05:34:50;;;;;;;60.08;22.30;;;;;;;5.72;71.81;97719.00;4503201;31;20095;-86
2022/11/24 05:37:16;;;;;;;48.13;20.48;;;;;;;5.36;73.09;97721.72;4503255;31;20185;-86
2022/11/24 05:39:42;;;;;;;47.92;19.00;;;;;;;5.41;73.17;97710.12;4503152;31;20088;-86
2022/11/24 05:44:52;;;;;;;50.58;21.12;;;;;;;5.46;73.28;97728.16;4503152;31;20166;-86
2022/11/24 05:47:17;;;;;;;51.70;21.60;;;;;;;5.63;72.63;97722.06;4503460;31;20099;-87
2022/11/24 05:49:43;;;;;;;47.78;19.52;;;;;;;5.56;72.63;97728.53;4489003;31;20108;-86
2022/11/24 05:52:08;;;;;;;49.55;20.25;;;;;;;5.21;73.26;97724.16;4503283;31;20087;-86
2022/11/24 05:54:34;;;;;;;49.20;19.40;;;;;;;5.41;72.15;97723.19;4488702;31;20099;-87
2022/11/24 05:56:59;;;;;;;46.90;18.60;;;;;;;5.45;71.63;97743.00;4502918;31;20339;-86
2022/11/24 05:59:25;;;;;;;48.33;20.15;;;;;;;5.40;72.18;97741.53;4488785;31;20108;-87
2022/11/24 06:01:50;;;;;;;50.58;19.67;;;;;;;5.29;71.59;97735.09;4503060;31;20095;-85
2022/11/24 06:04:15;;;;;;;49.70;19.70;;;;;;;5.32;71.23;97732.31;4502980;31;20087;-85
2022/11/24 06:06:41;;;;;;;46.55;18.50;;;;;;;5.64;70.08;97734.19;4503072;31;20088;-84
2022/11/24 06:09:06;;;;;;;45.67;19.08;;;;;;;5.34;70.33;97742.69;4502909;31;20107;-87
2022/11/24 06:11:32;;;;;;;52.47;20.90;;;;;;;5.39;69.80;97745.06;4502873;31;20364;-87
2022/11/24 06:13:57;;;;;;;48.38;18.42;;;;;;;5.63;68.92;97729.91;4475396;31;20084;-87
2022/11/24 06:16:22;;;;;;;47.92;17.90;;;;;;;5.71;68.48;97733.81;4488693;31;20106;-86
2022/11/24 06:18:48;;;;;;;43.65;17.23;;;;;;;5.61;68.67;97747.44;4488712;31;20100;-86
2022/11/24 06:21:13;;;;;;;43.53;16.80;;;;;;;5.23;69.80;97743.22;4499822;31;20123;-85
2022/11/24 06:23:39;;;;;;;45.67;16.95;;;;;;;5.43;68.87;97760.50;4493543;31;20084;-85
2022/11/24 06:26:05;;;;;;;43.50;16.48;;;;;;;5.57;68.20;97751.97;4493413;31;20088;-85
2022/11/24 06:28:31;;;;;;;45.63;17.00;;;;;;;5.64;67.48;97762.94;4465860;31;20116;-84
2022/11/24 06:31:03;;;;;;;45.10;16.40;;;;;;;5.47;68.23;97766.44;4478379;32;20143;-84
2022/11/24 06:33:33;;;;;;;42.72;17.10;;;;;;;5.65;68.20;97767.25;4478946;31;20092;-88
2022/11/24 06:36:04;;;;;;;38.90;15.23;;;;;;;5.58;67.65;97773.72;4493817;31;20080;-87
2022/11/24 06:38:30;;;;;;;43.87;16.15;;;;;;;5.55;68.15;97777.34;4476440;32;20123;-87
2022/11/24 06:41:02;;;;;;;40.42;15.38;;;;;;;5.55;68.30;97779.94;4493950;31;20151;-84
2022/11/24 06:43:28;;;;;;;43.28;16.08;;;;;;;5.51;67.54;97800.16;4493304;31;20412;-86
2022/11/24 06:45:54;;;;;;;43.65;16.33;;;;;;;5.80;65.90;97790.00;4480985;32;20144;-86
2022/11/24 06:48:20;;;;;;;38.60;16.05;;;;;;;5.66;67.90;97793.31;4484137;32;20088;-87
2022/11/24 06:50:45;;;;;;;37.88;15.48;;;;;;;5.63;68.09;97790.00;4484865;32;20092;-85
2022/11/24 06:53:11;;;;;;;39.60;16.12;;;;;;;5.78;67.27;97793.63;4484985;31;20106;-89
2022/11/24 06:55:37;;;;;;;42.47;16.45;;;;;;;5.92;67.01;97798.97;4485375;31;20111;-89
2022/11/24 06:58:03;;;;;;;41.50;15.32;;;;;;;5.95;66.41;97804.09;4486143;31;20124;-90
2022/11/24 07:00:30;;;;;;;39.63;15.45;;;;;;;6.05;65.71;97799.22;4486014;31;20470;-88
2022/11/24 07:02:59;;;;;;;37.22;15.75;;;;;;;6.02;65.63;97794.16;4486377;31;20096;-86
2022/11/24 07:05:25;;;;;;;38.95;15.30;;;;;;;5.97;65.56;97798.75;4485559;32;20137;-86
2022/11/24 07:07:50;;;;;;;42.30;16.17;;;;;;;5.58;66.43;97811.16;4486664;31;20100;-91
2022/11/24 07:10:16;;;;;;;39.47;15.27;;;;;;;5.81;66.04;97811.75;4486572;31;20436;-89
2022/11/24 07:12:41;;;;;;;40.35;15.32;;;;;;;5.72;65.80;97813.91;4486719;31;20111;-89
2022/11/24 07:15:07;;;;;;;42.53;15.20;;;;;;;5.59;66.20;97823.28;4485820;32;20120;-88
2022/11/24 07:17:37;;;;;;;43.83;17.17;;;;;;;5.54;66.13;97817.44;4486788;31;20139;-90
2022/11/24 07:20:07;;;;;;;40.63;15.68;;;;;;;5.54;65.59;97821.81;4485742;32;20180;-86
2022/11/24 07:22:33;;;;;;;39.30;15.52;;;;;;;5.43;66.06;97833.66;4486705;31;20115;-87
2022/11/24 07:24:58;;;;;;;35.70;14.63;;;;;;;5.30;66.55;97833.38;4485413;32;20125;-86
2022/11/24 07:27:25;;;;;;;38.05;15.15;;;;;;;5.76;64.76;97825.06;4486491;31;20141;-87
2022/11/24 07:29:51;;;;;;;38.73;15.27;;;;;;;5.91;65.10;97834.72;4486478;31;20118;-87
2022/11/24 07:32:16;;;;;;;35.83;13.90;;;;;;;5.72;64.41;97833.97;4471888;32;20368;-87
2022/11/24 07:34:42;;;;;;;34.88;14.25;;;;;;;5.54;65.20;97843.56;4485214;32;20088;-87
2022/11/24 07:37:07;;;;;;;39.25;15.18;;;;;;;5.78;64.83;97851.13;4486373;31;20459;-87
2022/11/24 07:39:32;;;;;;;38.40;14.68;;;;;;;5.93;64.63;97842.50;4486307;31;20111;-88
2022/11/24 07:41:59;;;;;;;33.67;13.30;;;;;;;5.94;65.12;97851.19;4485980;31;20085;-86
2022/11/24 07:44:25;;;;;;;38.00;14.98;;;;;;;5.65;66.11;97848.25;4485016;32;20106;-87
2022/11/24 07:46:50;;;;;;;41.97;16.37;;;;;;;5.68;66.40;97838.50;4485016;32;20100;-87
2022/11/24 07:49:16;;;;;;;41.53;16.02;;;;;;;5.66;67.03;97839.47;4486108;31;20359;-87
2022/11/24 07:51:42;;;;;;;42.20;16.20;;;;;;;5.81;66.29;97864.00;4486101;31;20114;-86
2022/11/24 07:54:07;;;;;;;38.00;15.15;;;;;;;5.71;67.14;97868.84;4484922;32;20107;-87
2022/11/24 07:56:32;;;;;;;39.40;15.88;;;;;;;5.82;66.31;97871.78;4486152;31;20143;-87
2022/11/24 07:58:58;;;;;;;38.80;14.95;;;;;;;5.81;66.20;97857.00;4486055;31;20102;-87
2022/11/24 08:01:23;;;;;;;38.38;14.63;;;;;;;5.88;66.04;97866.25;4485833;31;20192;-87
2022/11/24 08:03:49;;;;;;;36.60;14.32;;;;;;;5.77;65.56;97865.09;4486130;31;20072;-87
2022/11/24 08:06:15;;;;;;;39.42;15.98;;;;;;;5.91;65.65;97850.41;4484667;32;20144;-86
2022/11/24 08:08:41;;;;;;;40.33;15.80;;;;;;;5.78;67.08;97851.13;4486488;32;20829;-87
2022/11/24 08:11:08;;;;;;;42.05;15.90;;;;;;;6.03;65.77;97853.38;4488071;31;20111;-87
2022/11/24 08:13:34;;;;;;;37.88;15.35;;;;;;;6.34;64.58;97857.84;4488287;31;20123;-87
2022/11/24 08:16:08;;;;;;;38.88;14.65;;;;;;;6.30;64.65;97859.78;4488191;31;20115;-87
2022/11/24 08:18:34;;;;;;;39.97;13.62;;;;;;;6.40;63.21;97852.28;4487122;32;20426;-87
2022/11/24 08:20:59;;;;;;;42.45;15.40;;;;;;;6.00;63.64;97858.75;4487056;32;20080;-87
2022/11/24 08:23:27;;;;;;;41.08;15.55;;;;;;;6.09;63.73;97861.72;4488279;31;20115;-87
2022/11/24 08:25:53;;;;;;;44.47;16.00;;;;;;;5.98;64.29;97871.88;4488255;31;20496;-87
2022/11/24 08:28:19;;;;;;;40.42;15.77;;;;;;;5.66;65.39;97871.69;4488119;31;20435;-88
2022/11/24 08:30:44;;;;;;;40.80;17.40;;;;;;;6.07;64.13;97870.59;4488066;31;20115;-87
2022/11/24 08:33:11;;;;;;;46.65;17.42;;;;;;;5.94;64.32;97880.78;4488010;31;20099;-87
2022/11/24 08:35:37;;;;;;;47.30;18.00;;;;;;;6.05;64.72;97881.13;4488208;31;20187;-87
2022/11/24 08:38:03;;;;;;;43.17;17.35;;;;;;;5.87;64.92;97874.16;4486965;32;20593;-87
2022/11/24 08:40:28;;;;;;;41.37;16.30;;;;;;;6.13;64.24;97878.09;4486785;32;20088;-87
2022/11/24 08:42:58;;;;;;;45.78;15.60;;;;;;;5.98;63.23;97899.81;4488006;31;20106;-87
2022/11/24 08:45:24;;;;;;;42.75;15.63;;;;;;;6.32;62.86;97885.00;4488132;31;20088;-86
2022/11/24 08:47:53;;;;;;;43.38;17.20;;;;;;;6.03;63.69;97879.50;4488037;31;20160;-87
2022/11/24 08:50:20;;;;;;;43.80;16.42;;;;;;;5.98;63.65;97884.13;4486574;32;20110;-88
2022/11/24 08:52:45;;;;;;;42.85;16.92;;;;;;;6.22;62.76;97884.63;4486435;32;20416;-87
2022/11/24 08:55:11;;;;;;;44.28;16.75;;;;;;;6.17;63.37;97884.88;4487710;32;20096;-87
2022/11/24 08:57:37;;;;;;;40.25;15.50;;;;;;;5.99;63.77;97878.81;4487810;31;20115;-87
2022/11/24 09:00:04;;;;;;;44.00;16.27;;;;;;;6.37;63.10;97883.00;4486409;32;20116;-87
2022/11/24 09:02:29;;;;;;;42.65;15.95;;;;;;;5.99;63.82;97875.34;4487662;31;20107;-88
2022/11/24 09:04:54;;;;;;;44.30;15.95;;;;;;;6.19;63.08;97892.63;4486477;32;20104;-87
2022/11/24 09:07:20;;;;;;;41.50;16.60;;;;;;;5.67;65.19;97883.00;4487574;31;20084;-87
2022/11/24 09:09:45;;;;;;;41.05;15.88;;;;;;;5.99;64.33;97889.28;4486372;32;20142;-87
2022/11/24 09:12:11;;;;;;;41.47;16.05;;;;;;;6.31;63.02;97897.22;4487549;31;20431;-87
2022/11/24 09:14:36;;;;;;;41.25;15.40;;;;;;;6.47;62.14;97884.19;4487468;31;20081;-88
2022/11/24 09:17:01;;;;;;;44.00;15.48;;;;;;;6.37;62.21;97869.91;4486709;32;20097;-87
2022/11/24 09:19:27;;;;;;;42.33;15.77;;;;;;;6.56;61.51;97880.25;4487527;31;20416;-87
2022/11/24 09:21:52;;;;;;;39.45;15.75;;;;;;;6.51;61.84;97893.59;4487646;31;20108;-87
2022/11/24 09:24:18;;;;;;;40.85;16.62;;;;;;;6.36;62.42;97897.00;4487943;31;20130;-87
2022/11/24 09:26:44;;;;;;;46.42;16.85;;;;;;;5.97;63.41;97901.56;4487900;31;20093;-87
2022/11/24 09:29:12;;;;;;;42.15;15.35;;;;;;;6.03;64.00;97901.25;4486560;32;20089;-88
2022/11/24 09:31:38;;;;;;;41.58;15.98;;;;;;;6.41;62.69;97895.84;4486303;32;20076;-88
2022/11/24 09:34:06;;;;;;;40.65;16.05;;;;;;;6.45;62.37;97897.37;4487880;31;20135;-87
2022/11/24 09:36:31;;;;;;;39.58;15.65;;;;;;;6.23;62.99;97886.31;4486682;32;20758;-87
2022/11/24 09:38:57;;;;;;;43.60;16.02;;;;;;;6.24;63.66;97901.09;4487760;31;20500;-87
2022/11/24 09:41:28;;;;;;;40.45;15.73;;;;;;;6.63;62.56;97913.03;4487697;31;20112;-87
2022/11/24 09:44:27;;;;;;;38.65;15.77;;;;;;;6.60;61.76;97913.19;4487432;31;20091;-87
2022/11/24 09:47:14;;;;;;;37.90;15.57;;;;;;;6.43;62.22;97908.81;4487481;31;20130;-87
2022/11/24 09:49:54;;;;;;;40.00;15.27;;;;;;;6.64;62.08;97905.09;4487389;32;20495;-87
2022/11/24 09:52:34;;;;;;;44.00;16.58;;;;;;;6.71;61.76;97904.78;4486035;32;20476;-87
2022/11/24 09:55:01;;;;;;;43.20;16.92;;;;;;;6.49;62.98;97913.78;4487291;31;20085;-87
2022/11/24 09:57:28;;;;;;;43.45;17.50;;;;;;;6.43;64.05;97912.31;4486173;32;20455;-88
2022/11/24 09:59:58;;;;;;;37.88;15.18;;;;;;;6.62;62.88;97909.56;4487300;31;20444;-87
2022/11/24 10:02:24;;;;;;;45.65;16.77;;;;;;;6.67;62.61;97911.94;4486068;32;20088;-87
2022/11/24 10:04:51;;;;;;;37.22;16.62;;;;;;;6.60;63.09;97919.25;4487357;31;20467;-87
2022/11/24 10:07:41;;;;;;;38.97;16.73;;;;;;;6.71;63.22;97929.19;4486143;32;20742;-87
2022/11/24 10:10:25;;;;;;;39.40;16.12;;;;;;;6.27;64.28;97919.25;4486102;32;20169;-86
2022/11/24 10:13:25;;;;;;;43.95;17.30;;;;;;;6.05;65.36;97924.72;4486069;32;20072;-87
2022/11/24 10:16:32;;;;;;;41.20;16.40;;;;;;;6.46;64.05;97922.59;4487437;32;20523;-87
2022/11/24 10:19:13;;;;;;;43.80;17.10;;;;;;;6.44;64.33;97921.84;4438067;32;20361;-87
2022/11/24 10:22:01;;;;;;;41.40;15.35;;;;;;;6.30;64.87;97916.47;4425772;32;20090;-87
2022/11/24 10:25:01;;;;;;;43.87;16.50;;;;;;;6.27;64.90;97932.31;4438239;32;20189;-87
2022/11/24 10:27:33;;;;;;;39.30;15.85;;;;;;;6.58;64.49;97923.72;4437764;32;20098;-87
2022/11/24 10:29:59;;;;;;;41.95;17.02;;;;;;;6.27;65.84;97925.31;4411643;32;20205;-87
2022/11/24 10:32:36;;;;;;;42.35;17.62;;;;;;;6.40;64.67;97927.31;4425191;32;20129;-87
2022/11/24 10:35:27;;;;;;;37.88;15.48;;;;;;;6.07;65.84;97921.09;4425349;32;20429;-87
2022/11/24 10:38:18;;;;;;;37.20;14.27;;;;;;;6.06;65.85;97929.00;4438109;32;20384;-87
2022/11/24 10:40:53;;;;;;;40.30;15.57;;;;;;;6.60;64.34;97921.88;4438145;32;20098;-87
2022/11/24 10:43:19;;;;;;;40.00;15.93;;;;;;;6.26;65.22;97925.41;4438051;32;20606;-88
2022/11/24 10:45:44;;;;;;;37.40;16.50;;;;;;;6.47;64.73;97926.91;4438006;32;20128;-87
2022/11/24 10:48:30;;;;;;;38.22;15.27;;;;;;;6.42;65.18;97935.94;4424954;32;20476;-88
2022/11/24 10:51:25;;;;;;;37.97;15.88;;;;;;;6.36;65.27;97929.25;4425212;32;20901;-87
2022/11/24 10:53:52;;;;;;;36.53;14.73;;;;;;;6.49;64.07;97916.38;4437968;32;20092;-87
2022/11/24 10:56:18;;;;;;;36.22;14.40;;;;;;;6.63;63.70;97939.22;4474838;32;20129;-87
2022/11/24 10:58:43;;;;;;;35.47;15.00;;;;;;;6.55;64.56;97941.34;4486773;31;20103;-87
2022/11/24 11:01:11;;;;;;;36.28;14.60;;;;;;;6.67;63.85;97953.81;4486894;31;20092;-87
2022/11/24 11:03:46;;;;;;;37.75;14.93;;;;;;;6.91;62.78;97948.22;4486867;31;20088;-87
2022/11/24 11:06:13;;;;;;;37.35;14.77;;;;;;;6.80;63.54;97952.25;4485737;32;20098;-87
2022/11/24 11:08:38;;;;;;;35.03;13.88;;;;;;;7.24;62.66;97951.66;4486676;31;20141;-87
2022/11/24 11:11:17;;;;;;;33.00;14.57;;;;;;;7.08;62.41;97948.16;4486592;32;20081;-87
2022/11/24 11:13:57;;;;;;;32.20;14.10;;;;;;;7.04;62.67;97962.34;4472371;32;20474;-88
2022/11/24 11:16:24;;;;;;;31.77;13.73;;;;;;;6.78;63.71;97954.12;4486683;31;20646;-87
2022/11/24 11:18:50;;;;;;;32.30;13.57;;;;;;;7.32;61.63;97961.72;4486667;31;20092;-87
2022/11/24 11:21:29;;;;;;;34.08;14.02;;;;;;;7.44;61.42;97962.81;4485717;32;20092;-88
2022/11/24 11:23:55;;;;;;;35.30;14.20;;;;;;;7.34;61.35;97966.84;4486652;31;20080;-87
2022/11/24 11:26:23;;;;;;;35.80;13.13;;;;;;;7.70;60.60;97966.59;4485285;32;20115;-87
2022/11/24 11:29:07;;;;;;;32.00;13.57;;;;;;;7.29;62.00;97978.44;4486440;32;20165;-86
2022/11/24 11:31:34;;;;;;;33.42;13.48;;;;;;;7.92;60.35;97986.34;4486475;31;20107;-87
2022/11/24 11:34:09;;;;;;;30.40;12.52;;;;;;;7.62;60.42;98003.72;4485391;32;20105;-87
2022/11/24 11:36:45;;;;;;;29.40;11.95;;;;;;;7.34;60.82;97990.44;4486356;32;20076;-88
2022/11/24 11:39:22;;;;;;;31.30;12.82;;;;;;;7.64;60.69;97982.66;4485193;32;20104;-87